Robins Air Force Base
KWRB : now visible

Airfield :











YOU CAN JOIN US ON...

 
LOGIN :

Register | Disclaimer

   EN    FR    IT 

 









Legend :    VFR   Marginal VFR   IFR   Intensive IFR   Very Intensive IFR
Visi :
Ceiling :
>= 8 km
>= 3000ft
5 to 8 km
1000 to 3000 ft
1500m to 5 km
500 to 1000 ft
800 to 1500m
200 to 500 ft
< 800m
< 200 ft
Symbols :   Thunderstorms  Fog  Heavy snow  Heavy precipitations  Wind > 20 kt







- Airport Elevation : 294 ft


KWRB - Robins Air Force Base

CURRENT METAR :
  • 181056Z 20004KT 10SM FEW180 25/23 A3006 RMK AO2A SLP178 T02450225 $

EXPIRED METARs :
  • 180956Z 00000KT 10SM CLR 23/22 A3005 RMK AO2A SLP175 T02300218 $
  • 180856Z 13005KT 10SM CLR 23/22 A3004 RMK AO2A SLP172 T02310219 57006 $

TAF TAF KWRB
Valid from the 18 at 05:00 until the 19 at 11:00 UTC


180500Z 1805/1911 VRB06KT 9999 SCT200 QNH3004INS
BECMG 1811/1812 26012KT 9999 FEW070 SCT200 QNH3004INS
TEMPO 1818/1824 VRB15G25KT 8000 -TSRA BKN050CB BKN120 BKN200
BECMG 1823/1824 26009KT 9999 FEW065 QNH2997INS TX36/1819Z TN23/1811Z
KZTL FIR / North America



MET'MAP, your aeronautical weather chart ! - Copyright ORBIFLY December 2007 - Disclaimer

ORBIFLY MET'MAP TEAM :

Programming & Development : Alexandra Zaïnal
Concept & Development : Baudouin d'Aumeries
Co-Development & Prog : Marc-Olivier Méhu
Technical & hardware support : Manuel Goepfert

Contact : metmap@orbifly.com




SOURCES & CREDITS :

   NOAA       Earth
Advisory